Change the Weather History Date:

Wednesday, May 22, 2013

  Actual Average Record
Temperature  
Mean Temperature 78 °F -  
Max Temperature 83 °F 73 °F 89 °F (2001)
Min Temperature 72 °F 60 °F 47 °F (1968)
Cooling Degree Days 12    
Growing Degree Days 28 (Base 50)    
Moisture  
Dew Point 70 °F    
Average Humidity 79    
Maximum Humidity 88    
Minimum Humidity 58    
Precipitation  
Precipitation 0.00 in - - ()
Sea Level Pressure  
Sea Level Pressure 30.03 in    
Wind  
Wind Speed 15 mph (SSW)    
Max Wind Speed 23 mph    
Max Gust Speed 28 mph    
Visibility 10 miles    
Events Rain    
Averages and records for this station are not official NWS values.
T = Trace of Precipitation, MM = Missing Value Source: NWS Daily Summary

Daily Weather History Graph

Daily Weather History Graph

Search for Another Location

Airport or City:

Trip Planner

Search our weather history database for the weather conditions in past years. The results will help you decide how hot, cold, wet, or windy it might be!

Date:

Astronomy

May. 22, 2013 Rise Set
Actual Time 5:52 AM EDT 8:07 PM EDT
Civil Twilight 5:23 AM EDT 8:36 PM EDT
Nautical Twilight 4:47 AM EDT 9:11 PM EDT
Astronomical Twilight 4:08 AM EDT 9:50 PM EDT
Moon 5:30 PM EDT (5/22) 3:49 AM EDT (5/22)
Length of Visible Light 15h 13m
Length of Day
14h 14m
Waxing Gibbous, 91% of the Moon is Illuminated
May 22
Waxing Gibbous
May 25
Full
May 31
Last Quarter
Jun 8
New
Jun 16
First Quarter

Hourly Weather History & Observations

Time (EDT) Temp. Heat Index Dew Point Humidity Pressure Visibility Wind Dir Wind Speed Gust Speed Precip Events Conditions
12:15 AM 74.1 °F - 67.6 °F 80% 30.02 in 10.0 mi SW 15.0 mph - N/A   Clear
12:35 AM 73.9 °F - 68.0 °F 82% 30.02 in 10.0 mi SW 13.8 mph 20.7 mph N/A   Clear
12:55 AM 73.8 °F - 68.0 °F 82% 30.03 in 10.0 mi SW 15.0 mph - N/A   Clear
1:15 AM 73.6 °F - 68.4 °F 84% 30.03 in 10.0 mi SW 12.7 mph - N/A   Clear
1:35 AM 73.8 °F - 68.5 °F 84% 30.03 in 10.0 mi SW 12.7 mph - N/A   Clear
1:55 AM 73.6 °F - 68.5 °F 84% 30.03 in 10.0 mi SW 12.7 mph - N/A   Clear
2:15 AM 73.6 °F - 68.5 °F 84% 30.03 in 10.0 mi WSW 10.4 mph - N/A   Clear
2:35 AM 73.6 °F - 68.4 °F 84% 30.03 in 10.0 mi SW 11.5 mph - N/A   Clear
2:55 AM 73.6 °F - 68.7 °F 85% 30.03 in 10.0 mi SW 10.4 mph - N/A   Clear
3:15 AM 73.6 °F - 68.9 °F 85% 30.03 in 10.0 mi SW 11.5 mph - N/A   Clear
3:35 AM 73.6 °F - 68.9 °F 85% 30.03 in 10.0 mi SW 10.4 mph - N/A   Clear
3:55 AM 73.4 °F - 68.9 °F 86% 30.03 in 10.0 mi SW 9.2 mph - N/A   Clear
4:15 AM 73.4 °F - 68.9 °F 86% 30.03 in 10.0 mi SW 11.5 mph - N/A   Clear
4:35 AM 73.6 °F - 68.9 °F 85% 30.03 in 10.0 mi SW 10.4 mph - N/A   Clear
4:55 AM 73.4 °F - 68.9 °F 86% 30.03 in 10.0 mi WSW 12.7 mph - N/A   Clear
5:15 AM 73.4 °F - 68.9 °F 86% 30.03 in 10.0 mi SW 11.5 mph 17.3 mph N/A   Clear
5:35 AM 73.4 °F - 68.9 °F 86% 30.03 in 10.0 mi SW 10.4 mph - N/A   Clear
5:55 AM 72.9 °F - 68.9 °F 87% 30.03 in 10.0 mi SW 9.2 mph - N/A   Clear
6:15 AM 72.7 °F - 68.9 °F 88% 30.03 in 10.0 mi SSW 11.5 mph - N/A   Clear
6:35 AM 72.9 °F - 69.3 °F 88% 30.03 in 10.0 mi SSW 11.5 mph - N/A   Clear
6:55 AM 73.0 °F - 69.3 °F 88% 30.03 in 10.0 mi SW 11.5 mph - N/A   Clear
7:15 AM 73.4 °F - 69.3 °F 87% 30.03 in 10.0 mi SSW 10.4 mph - N/A   Clear
7:35 AM 74.1 °F - 69.3 °F 85% 30.03 in 10.0 mi SW 13.8 mph - N/A   Clear
7:55 AM 75.7 °F - 69.6 °F 81% 30.04 in 10.0 mi SW 13.8 mph - N/A   Clear
8:15 AM 77.0 °F - 69.4 °F 77% 30.04 in 10.0 mi SW 17.3 mph 20.7 mph N/A   Clear
8:35 AM 78.1 °F - 69.3 °F 74% 30.04 in 10.0 mi SW 12.7 mph 18.4 mph N/A   Clear
8:55 AM 79.0 °F - 68.9 °F 71% 30.05 in 10.0 mi SW 16.1 mph - N/A   Clear
9:15 AM 79.7 °F - 68.9 °F 69% 30.05 in 10.0 mi SW 12.7 mph - N/A   Mostly Cloudy
9:35 AM 79.2 °F - 69.1 °F 71% 30.05 in 10.0 mi SW 13.8 mph - N/A   Mostly Cloudy
9:55 AM 80.8 °F 83.8 °F 69.1 °F 67% 30.05 in 10.0 mi WSW 11.5 mph 17.3 mph N/A   Mostly Cloudy
10:15 AM 79.5 °F - 68.0 °F 68% 30.06 in 10.0 mi SW 12.7 mph - N/A   Mostly Cloudy
10:35 AM 81.5 °F 84.1 °F 67.3 °F 62% 30.06 in 10.0 mi WSW 15.0 mph - N/A   Scattered Clouds
10:55 AM 82.6 °F 84.9 °F 66.2 °F 58% 30.06 in 10.0 mi SW 13.8 mph - N/A   Scattered Clouds
11:15 AM 83.1 °F 85.9 °F 67.6 °F 59% 30.06 in 10.0 mi SW 10.4 mph 16.1 mph N/A   Scattered Clouds
11:35 AM 82.0 °F 86.7 °F 71.6 °F 71% 30.06 in 10.0 mi SSW 15.0 mph - N/A   Mostly Cloudy
11:55 AM 78.1 °F - 71.8 °F 81% 30.06 in 10.0 mi South 17.3 mph 21.9 mph N/A   Mostly Cloudy
12:15 PM 80.2 °F 84.0 °F 71.6 °F 75% 30.05 in 10.0 mi South 17.3 mph 21.9 mph N/A   Mostly Cloudy
12:35 PM 78.4 °F - 71.8 °F 80% 30.05 in 10.0 mi South 18.4 mph 21.9 mph N/A   Mostly Cloudy
12:55 PM 77.5 °F - 71.4 °F 81% 30.05 in 10.0 mi South 15.0 mph - N/A Rain Light Rain
1:15 PM 79.7 °F - 71.1 °F 75% 30.04 in 10.0 mi South 18.4 mph 24.2 mph N/A   Mostly Cloudy
1:35 PM 80.4 °F 84.1 °F 71.2 °F 73% 30.04 in 10.0 mi South 18.4 mph - N/A   Scattered Clouds
1:55 PM 80.6 °F 84.1 °F 70.3 °F 71% 30.03 in 10.0 mi South 17.3 mph - N/A   Scattered Clouds
2:15 PM 82.0 °F 86.1 °F 70.3 °F 68% 30.03 in 10.0 mi South 16.1 mph - N/A   Scattered Clouds
2:35 PM 81.5 °F 85.3 °F 70.3 °F 69% 30.02 in 10.0 mi South 18.4 mph 23.0 mph N/A   Scattered Clouds
2:55 PM 81.5 °F 85.1 °F 70.0 °F 68% 30.02 in 10.0 mi South 16.1 mph 23.0 mph N/A   Clear
3:15 PM 82.2 °F 85.5 °F 69.1 °F 64% 30.02 in 10.0 mi SSW 18.4 mph 21.9 mph N/A   Clear
3:35 PM 83.3 °F 86.9 °F 69.1 °F 62% 30.01 in 10.0 mi SSW 17.3 mph 25.3 mph N/A   Clear
3:55 PM 83.3 °F 87.6 °F 70.3 °F 65% 30.01 in 10.0 mi South 18.4 mph - N/A   Clear
4:15 PM 81.0 °F 84.9 °F 71.1 °F 72% 30.00 in 10.0 mi South 19.6 mph 25.3 mph N/A   Clear
4:35 PM 79.5 °F - 70.9 °F 75% 30.00 in 10.0 mi South 19.6 mph 25.3 mph N/A   Clear
4:55 PM 77.9 °F - 71.6 °F 81% 30.00 in 10.0 mi South 19.6 mph 25.3 mph N/A   Clear
5:15 PM 78.4 °F - 71.4 °F 79% 29.99 in 10.0 mi South 17.3 mph 21.9 mph N/A   Clear
5:35 PM 78.1 °F - 71.6 °F 80% 29.99 in 10.0 mi South 19.6 mph 25.3 mph N/A   Clear
5:55 PM 78.3 °F - 71.4 °F 79% 29.98 in 10.0 mi South 20.7 mph 27.6 mph N/A   Clear
6:15 PM 77.5 °F - 71.4 °F 81% 29.98 in 10.0 mi South 21.9 mph 26.5 mph N/A   Clear
6:35 PM 77.7 °F - 70.7 °F 79% 29.99 in 10.0 mi South 23.0 mph 27.6 mph N/A   Clear
6:55 PM 77.7 °F - 71.1 °F 80% 29.99 in 10.0 mi South 21.9 mph - N/A   Clear
7:15 PM 77.5 °F - 70.7 °F 79% 30.00 in 10.0 mi South 21.9 mph - N/A   Clear
7:35 PM 77.0 °F - 71.1 °F 82% 30.00 in 10.0 mi SSW 23.0 mph 26.5 mph N/A   Clear
7:55 PM 76.5 °F - 70.7 °F 82% 30.00 in 10.0 mi SSW 20.7 mph - N/A   Clear
8:15 PM 76.1 °F - 70.7 °F 83% 30.00 in 10.0 mi South 19.6 mph - N/A   Clear
8:35 PM 76.1 °F - 70.2 °F 82% 30.00 in 10.0 mi SSW 19.6 mph - N/A   Clear
8:55 PM 75.7 °F - 70.3 °F 83% 30.00 in 10.0 mi SSW 19.6 mph - N/A   Clear
9:15 PM 75.6 °F - 70.5 °F 84% 30.01 in 10.0 mi SSW 21.9 mph - N/A   Clear
9:35 PM 75.6 °F - 70.7 °F 85% 30.02 in 10.0 mi SSW 21.9 mph - N/A   Clear
9:55 PM 75.6 °F - 70.7 °F 85% 30.03 in 10.0 mi SSW 19.6 mph - N/A   Clear
10:15 PM 75.4 °F - 70.7 °F 85% 30.03 in 10.0 mi SSW 19.6 mph - N/A   Clear
10:35 PM 75.2 °F - 70.3 °F 85% 30.03 in 10.0 mi SSW 18.4 mph - N/A   Clear
10:55 PM 75.2 °F - 70.5 °F 85% 30.03 in 10.0 mi SSW 20.7 mph 25.3 mph N/A   Clear
11:15 PM 75.2 °F - 70.0 °F 84% 30.04 in 10.0 mi SSW 20.7 mph - N/A   Clear
11:35 PM 75.4 °F - 69.6 °F 82% 30.04 in 10.0 mi SSW 18.4 mph - N/A   Scattered Clouds
11:55 PM 75.2 °F - 69.8 °F 83% 30.04 in 10.0 mi SSW 18.4 mph - N/A   Mostly Cloudy